createdAt,value
2022-11-04T00:02:05.062Z,98055.34
2022-11-04T00:04:31.731Z,98054.38
2022-11-04T00:06:58.290Z,98073.47
2022-11-04T00:09:27.970Z,98072.81
2022-11-04T00:12:13.541Z,98064.75
2022-11-04T00:14:39.896Z,98057.72
2022-11-04T00:17:24.231Z,98056.72
2022-11-04T00:20:11.749Z,98058.25
2022-11-04T00:22:57.963Z,98070.84
2022-11-04T00:25:43.119Z,98072.84
2022-11-04T00:28:31.750Z,98079.22
2022-11-04T00:31:19.724Z,98092.59
2022-11-04T00:33:47.454Z,98088.22
2022-11-04T00:36:13.801Z,98090.94
2022-11-04T00:38:40.384Z,98096.63
2022-11-04T00:41:25.799Z,98102.63
2022-11-04T00:44:10.419Z,98109.50
2022-11-04T00:46:36.841Z,98113.38
2022-11-04T00:49:03.303Z,98117.34
2022-11-04T00:51:29.833Z,98118.03
2022-11-04T00:53:58.143Z,98125.41
2022-11-04T00:56:24.713Z,98134.59
2022-11-04T00:58:51.161Z,98145.13
2022-11-04T01:01:19.117Z,98145.78
2022-11-04T01:03:50.658Z,98146.94
2022-11-04T01:06:17.978Z,98154.47
2022-11-04T01:08:45.045Z,98157.31
2022-11-04T01:11:11.758Z,98151.75
2022-11-04T01:13:38.891Z,98161.09
2022-11-04T01:16:08.354Z,98162.25
2022-11-04T01:18:35.464Z,98165.91
2022-11-04T01:21:03.234Z,98167.69
2022-11-04T01:23:29.816Z,98165.34
2022-11-04T01:25:56.301Z,98155.81
2022-11-04T01:28:23.305Z,98159.00
2022-11-04T01:30:49.651Z,98164.94
2022-11-04T01:33:16.009Z,98160.94
2022-11-04T01:35:43.233Z,98166.28
2022-11-04T01:38:10.017Z,98162.03
2022-11-04T01:40:41.091Z,98165.66
2022-11-04T01:43:20.377Z,98172.19
2022-11-04T01:45:51.750Z,98176.78
2022-11-04T01:48:30.464Z,98166.72
2022-11-04T01:50:57.222Z,98165.00
2022-11-04T01:53:37.706Z,98166.81
2022-11-04T01:56:14.357Z,98167.97
2022-11-04T01:58:49.417Z,98174.00
2022-11-04T02:01:16.142Z,98172.56
2022-11-04T02:03:50.748Z,98173.00
2022-11-04T02:06:19.537Z,98173.63
2022-11-04T02:08:47.221Z,98160.41
2022-11-04T02:11:33.803Z,98182.31
2022-11-04T02:14:01.467Z,98180.13
2022-11-04T02:16:40.130Z,98186.31
2022-11-04T02:19:25.213Z,98178.13
2022-11-04T02:22:07.561Z,98189.28
2022-11-04T02:25:06.353Z,98183.56
2022-11-04T02:27:41.661Z,98186.47
2022-11-04T02:30:10.037Z,98178.94
2022-11-04T02:33:09.142Z,98169.88
2022-11-04T02:36:06.099Z,98175.38
2022-11-04T02:38:38.486Z,98179.25
2022-11-04T02:41:30.938Z,98174.44
2022-11-04T02:44:09.466Z,98181.09
2022-11-04T02:47:00.395Z,98184.44
2022-11-04T02:49:49.902Z,98178.88
2022-11-04T02:52:26.928Z,98185.19
2022-11-04T02:55:00.658Z,98183.06
2022-11-04T02:57:30.573Z,98180.47
2022-11-04T03:00:03.455Z,98177.88
2022-11-04T03:02:42.015Z,98176.91
2022-11-04T03:05:13.271Z,98175.13
2022-11-04T03:07:42.671Z,98171.78
2022-11-04T03:10:16.701Z,98172.44
2022-11-04T03:12:49.853Z,98173.84
2022-11-04T03:15:25.514Z,98173.53
2022-11-04T03:18:08.647Z,98169.78
2022-11-04T03:20:38.969Z,98176.56
2022-11-04T03:23:06.609Z,98171.28
2022-11-04T03:25:39.386Z,98177.22
2022-11-04T03:28:12.241Z,98175.78
2022-11-04T03:30:43.571Z,98180.34
2022-11-04T03:33:25.541Z,98169.97
2022-11-04T03:35:52.544Z,98167.75
2022-11-04T03:38:21.035Z,98167.22
2022-11-04T03:40:47.496Z,98168.75
2022-11-04T03:43:24.553Z,98171.25
2022-11-04T03:45:51.619Z,98170.06
2022-11-04T03:48:18.012Z,98169.59
2022-11-04T03:50:49.216Z,98161.44
2022-11-04T03:53:21.591Z,98163.69
2022-11-04T03:56:12.505Z,98164.50
2022-11-04T03:58:41.843Z,98165.41
2022-11-04T04:01:32.906Z,98170.22
2022-11-04T04:04:05.623Z,98175.06
2022-11-04T04:06:35.869Z,98165.13
2022-11-04T04:09:19.235Z,98167.66
2022-11-04T04:12:05.401Z,98166.63
2022-11-04T04:14:49.116Z,98157.19
2022-11-04T04:17:24.911Z,98164.13
2022-11-04T04:19:58.450Z,98166.41
2022-11-04T04:22:31.584Z,98177.28
2022-11-04T04:25:21.041Z,98182.00
2022-11-04T04:27:49.614Z,98182.50
2022-11-04T04:30:17.428Z,98174.34
2022-11-04T04:32:48.407Z,98176.09
2022-11-04T04:35:34.556Z,98181.75
2022-11-04T04:38:23.192Z,98189.19
2022-11-04T04:41:29.240Z,98194.75
2022-11-04T04:44:15.405Z,98194.66
2022-11-04T04:46:44.771Z,98196.84
2022-11-04T04:49:11.103Z,98194.44
2022-11-04T04:51:42.730Z,98186.84
2022-11-04T04:54:09.180Z,98181.72
2022-11-04T04:56:36.006Z,98184.41
2022-11-04T04:59:02.449Z,98192.25
2022-11-04T05:01:29.098Z,98188.00
2022-11-04T05:03:55.564Z,98196.66
2022-11-04T05:06:21.926Z,98190.16
2022-11-04T05:08:48.312Z,98183.41
2022-11-04T05:11:14.725Z,98181.31
2022-11-04T05:13:41.128Z,98159.44
2022-11-04T05:16:10.687Z,98169.88
2022-11-04T05:18:37.509Z,98171.47
2022-11-04T05:21:08.569Z,98163.03
2022-11-04T05:23:35.169Z,98162.31
2022-11-04T05:26:01.900Z,98161.91
2022-11-04T05:28:28.284Z,98154.09
2022-11-04T05:30:54.769Z,98162.66
2022-11-04T05:33:21.504Z,98161.75
2022-11-04T05:35:48.028Z,98169.88
2022-11-04T05:38:14.529Z,98166.56
2022-11-04T05:40:40.904Z,98169.66
2022-11-04T05:43:08.118Z,98176.66
2022-11-04T05:45:34.747Z,98165.44
2022-11-04T05:48:03.047Z,98177.50
2022-11-04T05:50:31.284Z,98177.97
2022-11-04T05:52:58.584Z,98184.81
2022-11-04T05:55:25.279Z,98186.13
2022-11-04T05:57:52.120Z,98190.34
2022-11-04T06:00:18.689Z,98190.19
2022-11-04T06:02:45.512Z,98208.41
2022-11-04T06:05:12.024Z,98199.75
2022-11-04T06:07:38.378Z,98209.56
2022-11-04T06:10:04.986Z,98205.88
2022-11-04T06:12:31.361Z,98219.94
2022-11-04T06:14:58.009Z,98221.63
2022-11-04T06:17:24.368Z,98218.09
2022-11-04T06:19:50.896Z,98228.88
2022-11-04T06:22:19.047Z,98233.59
2022-11-04T06:24:45.473Z,98241.59
2022-11-04T06:27:12.588Z,98237.56
2022-11-04T06:29:42.069Z,98237.56
2022-11-04T06:32:10.324Z,98242.34
2022-11-04T06:34:37.094Z,98251.28
2022-11-04T06:37:03.964Z,98253.56
2022-11-04T06:39:30.748Z,98254.28
2022-11-04T06:41:59.664Z,98255.78
2022-11-04T06:44:28.844Z,98261.94
2022-11-04T06:46:55.207Z,98251.00
2022-11-04T06:49:25.540Z,98252.09
2022-11-04T06:51:52.134Z,98261.34
2022-11-04T06:54:18.783Z,98265.25
2022-11-04T06:56:45.462Z,98272.81
2022-11-04T06:59:21.140Z,98271.97
2022-11-04T07:01:49.932Z,98275.03
2022-11-04T07:04:16.357Z,98274.16
2022-11-04T07:06:44.322Z,98284.81
2022-11-04T07:09:13.138Z,98288.16
2022-11-04T07:11:40.673Z,98280.94
2022-11-04T07:14:08.662Z,98287.91
2022-11-04T07:16:35.076Z,98283.97
2022-11-04T07:19:01.529Z,98291.09
2022-11-04T07:21:27.875Z,98301.44
2022-11-04T07:23:54.273Z,98293.44
2022-11-04T07:26:21.469Z,98298.34
2022-11-04T07:28:47.878Z,98305.13
2022-11-04T07:31:14.919Z,98302.25
2022-11-04T07:33:41.415Z,98299.09
2022-11-04T07:36:13.404Z,98295.22
2022-11-04T07:38:39.854Z,98304.06
2022-11-04T07:41:07.042Z,98298.25
2022-11-04T07:43:33.445Z,98292.50
2022-11-04T07:46:08.118Z,98294.88
2022-11-04T07:48:36.583Z,98296.59
2022-11-04T07:51:05.343Z,98291.94
2022-11-04T07:53:32.131Z,98299.06
2022-11-04T07:55:58.871Z,98299.72
2022-11-04T07:58:28.042Z,98299.56
2022-11-04T08:00:59.932Z,98300.41
2022-11-04T08:03:26.739Z,98302.09
2022-11-04T08:06:00.935Z,98305.66
2022-11-04T08:08:28.651Z,98308.19
2022-11-04T08:10:57.412Z,98307.94
2022-11-04T08:13:27.912Z,98301.56
2022-11-04T08:15:54.255Z,98304.13
2022-11-04T08:18:20.697Z,98308.66
2022-11-04T08:20:49.938Z,98310.84
2022-11-04T08:23:19.897Z,98315.72
2022-11-04T08:25:46.651Z,98314.53
2022-11-04T08:28:17.523Z,98317.41
2022-11-04T08:30:58.118Z,98318.59
2022-11-04T08:33:26.710Z,98322.41
2022-11-04T08:35:55.058Z,98330.13
2022-11-04T08:38:21.847Z,98332.69
2022-11-04T08:40:48.403Z,98328.50
2022-11-04T08:43:14.845Z,98332.53
2022-11-04T08:45:43.864Z,98334.41
2022-11-04T08:48:10.668Z,98326.59
2022-11-04T08:50:37.251Z,98319.25
2022-11-04T08:53:04.177Z,98320.94
2022-11-04T08:55:32.236Z,98318.78
2022-11-04T08:58:00.048Z,98324.63
2022-11-04T09:00:26.794Z,98315.94
2022-11-04T09:02:55.401Z,98325.34
2022-11-04T09:05:22.686Z,98325.19
2022-11-04T09:07:49.226Z,98325.53
2022-11-04T09:10:15.664Z,98318.78
2022-11-04T09:12:43.013Z,98305.75
2022-11-04T09:15:10.113Z,98315.59
2022-11-04T09:17:37.300Z,98314.75
2022-11-04T09:20:05.044Z,98316.63
2022-11-04T09:22:31.899Z,98325.34
2022-11-04T09:24:58.260Z,98314.13
2022-11-04T09:27:24.823Z,98312.25
2022-11-04T09:29:51.175Z,98317.66
2022-11-04T09:32:17.563Z,98313.66
2022-11-04T09:34:43.897Z,98306.28
2022-11-04T09:37:10.408Z,98307.78
2022-11-04T09:39:36.784Z,98313.69
2022-11-04T09:42:33.445Z,98317.88
2022-11-04T09:45:21.073Z,98307.00
2022-11-04T09:47:50.978Z,98314.53
2022-11-04T09:50:23.637Z,98310.31
2022-11-04T09:53:18.021Z,98315.03
2022-11-04T09:56:22.799Z,98302.78
2022-11-04T09:58:50.955Z,98299.44
2022-11-04T10:01:52.848Z,98303.63
2022-11-04T10:04:56.983Z,98306.81
2022-11-04T10:07:34.820Z,98312.19
2022-11-04T10:10:21.801Z,98310.19
2022-11-04T10:13:12.658Z,98298.59
2022-11-04T10:16:10.929Z,98298.47
2022-11-04T10:18:50.097Z,98290.06
2022-11-04T10:21:21.827Z,98302.66
2022-11-04T10:24:15.615Z,98298.94
2022-11-04T10:26:46.658Z,98302.66
2022-11-04T10:29:35.617Z,98306.81
2022-11-04T10:32:07.052Z,98304.63
2022-11-04T10:34:46.392Z,98308.84
2022-11-04T10:37:13.349Z,98314.38
2022-11-04T10:39:46.991Z,98322.44
2022-11-04T10:42:18.862Z,98319.41
2022-11-04T10:44:48.873Z,98321.94
2022-11-04T10:47:23.120Z,98323.41
2022-11-04T10:50:27.255Z,98325.22
2022-11-04T10:52:47.151Z,98323.25
2022-11-04T10:55:34.739Z,98326.09
2022-11-04T10:58:01.336Z,98331.22
2022-11-04T11:00:39.405Z,98328.03
2022-11-04T11:03:26.610Z,98327.16
2022-11-04T11:05:54.815Z,98329.88
2022-11-04T11:08:30.838Z,98335.06
2022-11-04T11:10:57.606Z,98338.75
2022-11-04T11:13:27.692Z,98339.72
2022-11-04T11:16:07.306Z,98338.94
2022-11-04T11:18:34.217Z,98340.56
2022-11-04T11:21:07.826Z,98329.13
2022-11-04T11:23:48.374Z,98336.84
2022-11-04T11:26:18.514Z,98332.66
2022-11-04T11:28:55.825Z,98330.16
2022-11-04T11:31:26.592Z,98331.53
2022-11-04T11:33:59.203Z,98333.00
2022-11-04T11:36:28.405Z,98341.28
2022-11-04T11:38:59.262Z,98333.63
2022-11-04T11:41:32.948Z,98341.06
2022-11-04T11:44:31.839Z,98340.66
2022-11-04T11:47:03.872Z,98340.69
2022-11-04T11:49:34.228Z,98338.44
2022-11-04T11:52:22.732Z,98333.41
2022-11-04T11:55:23.003Z,98339.44
2022-11-04T12:01:06.869Z,98338.63
2022-11-04T12:09:34.478Z,98333.59
2022-11-04T12:12:42.636Z,98341.63
2022-11-04T12:15:30.901Z,98330.88
2022-11-04T12:18:07.559Z,98331.00
2022-11-04T12:20:45.569Z,98331.34
2022-11-04T12:23:12.147Z,98334.22
2022-11-04T12:26:19.524Z,98324.91
2022-11-04T12:29:30.803Z,98326.75
2022-11-04T12:32:42.270Z,98332.84
2022-11-04T12:35:19.073Z,98340.66
2022-11-04T12:38:00.786Z,98351.78
2022-11-04T12:41:05.010Z,98358.84
2022-11-04T12:43:47.494Z,98355.88
2022-11-04T12:46:37.312Z,98359.22
2022-11-04T12:49:31.945Z,98369.63
2022-11-04T12:52:27.974Z,98366.13
2022-11-04T12:54:57.191Z,98373.34
2022-11-04T12:57:48.315Z,98366.28
2022-11-04T13:00:18.193Z,98364.25
2022-11-04T13:03:05.409Z,98378.22
2022-11-04T13:06:12.711Z,98373.53
2022-11-04T13:08:58.196Z,98374.34
2022-11-04T13:11:37.588Z,98381.91
2022-11-04T13:14:21.294Z,98370.75
2022-11-04T13:16:51.792Z,98377.41
2022-11-04T13:19:31.005Z,98377.78
2022-11-04T13:22:01.513Z,98383.50
2022-11-04T13:24:33.040Z,98374.09
2022-11-04T13:27:05.017Z,98384.34
2022-11-04T13:29:35.002Z,98387.75
2022-11-04T13:32:08.634Z,98385.06
2022-11-04T13:34:43.784Z,98386.06
2022-11-04T13:37:43.013Z,98382.72
2022-11-04T13:40:19.993Z,98385.41
2022-11-04T13:43:40.043Z,98387.59
2022-11-04T13:46:18.214Z,98394.47
2022-11-04T13:49:17.620Z,98399.72
2022-11-04T13:52:00.074Z,98397.84
2022-11-04T13:54:33.187Z,98399.72
2022-11-04T13:57:09.267Z,98409.59
2022-11-04T13:59:36.501Z,98420.34
2022-11-04T14:02:12.181Z,98431.56
2022-11-04T14:04:39.961Z,98428.06
2022-11-04T14:07:10.596Z,98430.25
2022-11-04T14:09:42.676Z,98434.63
2022-11-04T14:12:09.014Z,98438.78
2022-11-04T14:14:36.924Z,98432.09
2022-11-04T14:17:07.145Z,98439.13
2022-11-04T14:19:47.663Z,98450.91
2022-11-04T14:22:16.927Z,98451.56
2022-11-04T14:24:44.673Z,98450.91
2022-11-04T14:27:50.706Z,98454.56
2022-11-04T14:30:28.097Z,98462.78
2022-11-04T14:33:19.620Z,98465.28
2022-11-04T14:35:46.040Z,98456.75
2022-11-04T14:38:27.501Z,98465.16
2022-11-04T14:41:12.789Z,98469.19
2022-11-04T14:43:43.262Z,98474.41
2022-11-04T14:46:17.386Z,98479.44
2022-11-04T14:48:51.993Z,98476.56
2022-11-04T14:51:26.443Z,98488.50
2022-11-04T14:53:58.969Z,98489.81
2022-11-04T14:56:26.923Z,98492.81
2022-11-04T14:59:06.219Z,98500.19
2022-11-04T15:01:36.525Z,98508.56
2022-11-04T15:04:26.867Z,98514.84
2022-11-04T15:07:00.396Z,98522.53
2022-11-04T15:09:48.344Z,98521.84
2022-11-04T15:12:37.676Z,98549.84
2022-11-04T15:15:27.156Z,98561.25
2022-11-04T15:18:00.630Z,98568.94
2022-11-04T15:20:30.486Z,98576.91
2022-11-04T15:22:58.932Z,98580.25
2022-11-04T15:25:25.771Z,98584.22
2022-11-04T15:27:53.070Z,98591.75
2022-11-04T15:30:28.119Z,98592.72
2022-11-04T15:33:03.901Z,98599.56
2022-11-04T15:35:33.114Z,98608.75
2022-11-04T15:38:01.626Z,98600.34
2022-11-04T15:40:29.656Z,98609.03
2022-11-04T15:42:59.113Z,98612.69
2022-11-04T15:45:52.559Z,98622.19
2022-11-04T15:48:27.430Z,98616.84
2022-11-04T15:51:11.818Z,98625.03
2022-11-04T15:53:55.200Z,98621.81
2022-11-04T15:56:25.884Z,98626.31
2022-11-04T15:58:54.505Z,98625.63
2022-11-04T16:01:21.258Z,98633.53
2022-11-04T16:03:52.167Z,98634.34
2022-11-04T16:06:33.556Z,98632.00
2022-11-04T16:09:02.833Z,98644.53
2022-11-04T16:11:29.444Z,98649.22
2022-11-04T16:14:15.453Z,98648.53
2022-11-04T16:16:47.967Z,98646.78
2022-11-04T16:19:23.130Z,98646.22
2022-11-04T16:21:58.426Z,98658.78
2022-11-04T16:24:29.310Z,98654.09
2022-11-04T16:26:57.212Z,98657.66
2022-11-04T16:29:27.680Z,98668.66
2022-11-04T16:32:18.821Z,98672.94
2022-11-04T16:34:46.795Z,98678.47
2022-11-04T16:37:13.450Z,98679.13
2022-11-04T16:39:40.754Z,98682.66
2022-11-04T16:42:09.124Z,98694.81
2022-11-04T16:44:36.378Z,98689.91
2022-11-04T16:47:02.778Z,98690.06
2022-11-04T16:49:29.165Z,98688.25
2022-11-04T16:52:01.230Z,98695.72
2022-11-04T16:54:28.157Z,98698.25
2022-11-04T16:56:55.609Z,98710.88
2022-11-04T16:59:21.985Z,98717.69
2022-11-04T17:01:48.443Z,98717.97
2022-11-04T17:04:15.424Z,98720.97
2022-11-04T17:06:43.267Z,98724.94
2022-11-04T17:09:20.337Z,98729.81
2022-11-04T17:11:47.809Z,98730.00
2022-11-04T17:14:14.226Z,98736.03
2022-11-04T17:16:40.617Z,98731.50
2022-11-04T17:19:14.030Z,98727.00
2022-11-04T17:21:40.394Z,98740.09
2022-11-04T17:24:06.863Z,98734.59
2022-11-04T17:26:34.358Z,98739.09
2022-11-04T17:29:01.081Z,98745.28
2022-11-04T17:31:28.264Z,98738.09
2022-11-04T17:33:54.607Z,98749.13
2022-11-04T17:36:21.918Z,98756.84
2022-11-04T17:38:48.265Z,98758.53
2022-11-04T17:41:33.186Z,98765.59
2022-11-04T17:44:02.177Z,98756.84
2022-11-04T17:46:35.160Z,98762.19
2022-11-04T17:49:03.965Z,98775.16
2022-11-04T17:51:30.968Z,98771.47
2022-11-04T17:53:57.831Z,98771.63
2022-11-04T17:56:25.154Z,98783.03
2022-11-04T17:58:53.200Z,98783.03
2022-11-04T18:01:23.133Z,98785.03
2022-11-04T18:03:52.037Z,98787.56
2022-11-04T18:06:18.478Z,98790.78
2022-11-04T18:08:44.805Z,98793.75
2022-11-04T18:11:12.724Z,98806.28
2022-11-04T18:13:39.056Z,98800.78
2022-11-04T18:16:13.346Z,98799.09
2022-11-04T18:18:40.472Z,98800.22
2022-11-04T18:21:08.367Z,98804.75
2022-11-04T18:23:34.849Z,98809.00
2022-11-04T18:26:02.999Z,98814.94
2022-11-04T18:28:29.349Z,98818.91
2022-11-04T18:30:55.704Z,98828.63
2022-11-04T18:33:22.063Z,98830.19
2022-11-04T18:35:49.486Z,98834.03
2022-11-04T18:38:15.894Z,98827.13
2022-11-04T18:40:42.244Z,98836.44
2022-11-04T18:43:09.374Z,98840.81
2022-11-04T18:45:36.377Z,98833.50
2022-11-04T18:48:02.897Z,98837.88
2022-11-04T18:50:30.108Z,98844.19
2022-11-04T18:52:56.524Z,98837.00
2022-11-04T18:55:23.916Z,98844.34
2022-11-04T18:57:54.248Z,98843.38
2022-11-04T19:00:21.085Z,98841.81
2022-11-04T19:02:47.522Z,98841.94
2022-11-04T19:05:14.083Z,98840.97
2022-11-04T19:07:41.900Z,98850.44
2022-11-04T19:10:08.669Z,98847.47
2022-11-04T19:12:53.930Z,98850.28
2022-11-04T19:15:20.514Z,98852.84
2022-11-04T19:17:47.146Z,98858.75
2022-11-04T19:20:13.783Z,98865.47
2022-11-04T19:22:40.826Z,98863.97
2022-11-04T19:25:08.304Z,98871.84
2022-11-04T19:27:34.999Z,98874.19
2022-11-04T19:30:01.921Z,98866.63
2022-11-04T19:32:28.298Z,98876.19
2022-11-04T19:34:54.833Z,98876.75
2022-11-04T19:37:21.515Z,98880.97
2022-11-04T19:39:47.910Z,98890.53
2022-11-04T19:42:34.649Z,98893.06
2022-11-04T19:45:01.382Z,98896.19
2022-11-04T19:47:27.782Z,98901.53
2022-11-04T19:49:55.413Z,98907.16
2022-11-04T19:52:21.788Z,98912.50
2022-11-04T19:54:48.214Z,98911.09
2022-11-04T19:57:14.571Z,98913.06
2022-11-04T19:59:41.063Z,98918.41
2022-11-04T20:02:08.243Z,98916.28
2022-11-04T20:04:34.767Z,98922.09
2022-11-04T20:07:01.361Z,98915.88
2022-11-04T20:09:27.719Z,98917.84
2022-11-04T20:12:12.829Z,98918.84
2022-11-04T20:14:39.261Z,98932.22
2022-11-04T20:17:08.612Z,98932.06
2022-11-04T20:19:35.259Z,98942.34
2022-11-04T20:22:01.856Z,98941.91
2022-11-04T20:24:28.484Z,98937.84
2022-11-04T20:26:54.864Z,98945.59
2022-11-04T20:29:21.235Z,98943.88
2022-11-04T20:31:47.588Z,98948.53
2022-11-04T20:34:15.046Z,98951.06
2022-11-04T20:36:42.021Z,98957.25
2022-11-04T20:39:15.509Z,98957.97
2022-11-04T20:41:42.758Z,98963.31
2022-11-04T20:44:13.590Z,98981.47
2022-11-04T20:46:40.721Z,98977.94
2022-11-04T20:49:07.318Z,98985.69
2022-11-04T20:51:36.118Z,98974.00
2022-11-04T20:54:05.574Z,98983.28
2022-11-04T20:56:37.839Z,98989.06
2022-11-04T20:59:05.046Z,98992.59
2022-11-04T21:01:35.861Z,98997.22
2022-11-04T21:04:08.608Z,98997.78
2022-11-04T21:06:39.646Z,99006.78
2022-11-04T21:09:08.563Z,99007.94
2022-11-04T21:11:35.719Z,99016.66
2022-11-04T21:14:03.516Z,99018.63
2022-11-04T21:16:30.412Z,99016.91
2022-11-04T21:18:57.775Z,99020.59
2022-11-04T21:21:27.279Z,99025.22
2022-11-04T21:23:58.544Z,99035.06
2022-11-04T21:26:27.583Z,99034.81
2022-11-04T21:28:56.324Z,99033.41
2022-11-04T21:31:24.398Z,99038.75
2022-11-04T21:33:51.786Z,99045.09
2022-11-04T21:36:18.910Z,99043.41
2022-11-04T21:38:45.281Z,99048.19
2022-11-04T21:41:14.903Z,99048.00
2022-11-04T21:43:41.624Z,99052.25
2022-11-04T21:46:15.679Z,99050.69
2022-11-04T21:48:42.989Z,99063.06
2022-11-04T21:51:17.746Z,99061.81
2022-11-04T21:53:44.360Z,99059.13
2022-11-04T21:56:17.105Z,99062.06
2022-11-04T21:58:44.333Z,99065.31
2022-11-04T22:01:13.413Z,99073.78
2022-11-04T22:03:40.220Z,99077.75
2022-11-04T22:06:13.611Z,99075.78
2022-11-04T22:08:45.928Z,99078.47
2022-11-04T22:11:18.857Z,99083.69
2022-11-04T22:13:45.685Z,99088.16
2022-11-04T22:16:12.041Z,99086.22
2022-11-04T22:18:38.554Z,99080.13
2022-11-04T22:21:10.208Z,99085.34
2022-11-04T22:23:36.736Z,99081.72
2022-11-04T22:26:06.219Z,99080.28
2022-11-04T22:28:32.706Z,99084.78
2022-11-04T22:31:21.229Z,99084.91
2022-11-04T22:33:47.936Z,99091.25
2022-11-04T22:36:14.686Z,99091.25
2022-11-04T22:38:42.073Z,99089.00
2022-11-04T22:41:11.827Z,99093.38
2022-11-04T22:43:38.567Z,99095.78
2022-11-04T22:46:16.051Z,99089.03
2022-11-04T22:48:42.463Z,99097.63
2022-11-04T22:51:09.746Z,99096.63
2022-11-04T22:53:36.974Z,99105.28
2022-11-04T22:56:05.244Z,99104.56
2022-11-04T22:58:31.614Z,99104.56
2022-11-04T23:01:02.810Z,99109.53
2022-11-04T23:03:29.497Z,99109.81
2022-11-04T23:05:58.202Z,99118.25
2022-11-04T23:08:26.722Z,99125.44
2022-11-04T23:11:27.234Z,99129.78
2022-11-04T23:14:20.839Z,99131.91
2022-11-04T23:17:08.741Z,99133.59
2022-11-04T23:19:36.363Z,99130.78
2022-11-04T23:22:21.506Z,99129.09
2022-11-04T23:25:06.266Z,99129.38
2022-11-04T23:27:53.083Z,99133.03
2022-11-04T23:30:22.085Z,99139.81
2022-11-04T23:32:49.923Z,99141.94
2022-11-04T23:35:35.442Z,99151.09
2022-11-04T23:38:01.735Z,99142.50
2022-11-04T23:40:29.305Z,99155.19
2022-11-04T23:42:55.917Z,99153.88
2022-11-04T23:45:41.431Z,99148.50
2022-11-04T23:48:29.272Z,99156.94
2022-11-04T23:51:15.705Z,99165.19
2022-11-04T23:54:00.858Z,99167.53
2022-11-04T23:56:46.747Z,99161.00
2022-11-04T23:59:33.588Z,99167.75
